sensor_id;sensor_type;location;lat;lon;timestamp;P1;durP1;ratioP1;P2;durP2;ratioP2
36257;SDS011;22294;52.044;4.582;2022-09-13T00:01:08;11.13;;;7.97;;
36257;SDS011;22294;52.044;4.582;2022-09-13T00:03:34;10.95;;;7.80;;
36257;SDS011;22294;52.044;4.582;2022-09-13T00:06:06;10.15;;;7.85;;
36257;SDS011;22294;52.044;4.582;2022-09-13T00:08:35;12.82;;;8.65;;
36257;SDS011;22294;52.044;4.582;2022-09-13T00:11:00;13.50;;;9.95;;
36257;SDS011;22294;52.044;4.582;2022-09-13T00:13:26;18.77;;;10.20;;
36257;SDS011;22294;52.044;4.582;2022-09-13T00:15:51;10.90;;;9.73;;
36257;SDS011;22294;52.044;4.582;2022-09-13T00:18:17;13.33;;;9.27;;
36257;SDS011;22294;52.044;4.582;2022-09-13T00:20:42;16.20;;;9.18;;
36257;SDS011;22294;52.044;4.582;2022-09-13T00:23:08;12.88;;;9.20;;
36257;SDS011;22294;52.044;4.582;2022-09-13T00:25:34;13.20;;;8.68;;
36257;SDS011;22294;52.044;4.582;2022-09-13T00:28:00;11.98;;;9.25;;
36257;SDS011;22294;52.044;4.582;2022-09-13T00:30:26;10.18;;;8.88;;
36257;SDS011;22294;52.044;4.582;2022-09-13T00:32:51;14.63;;;8.85;;
36257;SDS011;22294;52.044;4.582;2022-09-13T00:35:16;11.50;;;9.18;;
36257;SDS011;22294;52.044;4.582;2022-09-13T00:37:42;14.10;;;8.57;;
36257;SDS011;22294;52.044;4.582;2022-09-13T00:40:07;11.05;;;8.48;;
36257;SDS011;22294;52.044;4.582;2022-09-13T00:42:32;11.70;;;8.18;;
36257;SDS011;22294;52.044;4.582;2022-09-13T00:44:59;10.38;;;8.05;;
36257;SDS011;22294;52.044;4.582;2022-09-13T00:47:34;10.52;;;8.65;;
36257;SDS011;22294;52.044;4.582;2022-09-13T00:50:16;13.73;;;10.60;;
36257;SDS011;22294;52.044;4.582;2022-09-13T00:52:46;16.00;;;10.88;;
36257;SDS011;22294;52.044;4.582;2022-09-13T00:58:17;12.05;;;10.05;;
36257;SDS011;22294;52.044;4.582;2022-09-13T01:00:46;14.02;;;10.43;;
36257;SDS011;22294;52.044;4.582;2022-09-13T01:03:14;12.80;;;10.45;;
36257;SDS011;22294;52.044;4.582;2022-09-13T01:05:43;13.95;;;9.95;;
36257;SDS011;22294;52.044;4.582;2022-09-13T01:08:13;13.98;;;11.23;;
36257;SDS011;22294;52.044;4.582;2022-09-13T01:10:49;14.05;;;11.20;;
36257;SDS011;22294;52.044;4.582;2022-09-13T01:13:19;15.50;;;11.38;;
36257;SDS011;22294;52.044;4.582;2022-09-13T01:15:47;14.02;;;11.55;;
36257;SDS011;22294;52.044;4.582;2022-09-13T01:18:13;13.95;;;11.48;;
36257;SDS011;22294;52.044;4.582;2022-09-13T01:29:27;13.30;;;10.55;;
36257;SDS011;22294;52.044;4.582;2022-09-13T01:32:12;13.68;;;9.88;;
36257;SDS011;22294;52.044;4.582;2022-09-13T01:40:47;12.65;;;10.75;;
36257;SDS011;22294;52.044;4.582;2022-09-13T01:51:01;13.02;;;9.88;;
36257;SDS011;22294;52.044;4.582;2022-09-13T01:56:34;12.40;;;9.75;;
36257;SDS011;22294;52.044;4.582;2022-09-13T01:59:13;12.73;;;9.88;;
36257;SDS011;22294;52.044;4.582;2022-09-13T02:01:52;13.13;;;10.25;;
36257;SDS011;22294;52.044;4.582;2022-09-13T02:04:24;12.60;;;9.05;;
36257;SDS011;22294;52.044;4.582;2022-09-13T02:07:01;11.98;;;9.40;;
36257;SDS011;22294;52.044;4.582;2022-09-13T02:09:33;11.13;;;9.43;;
36257;SDS011;22294;52.044;4.582;2022-09-13T02:12:05;11.02;;;9.20;;
36257;SDS011;22294;52.044;4.582;2022-09-13T02:14:39;13.35;;;9.70;;
36257;SDS011;22294;52.044;4.582;2022-09-13T02:17:17;11.60;;;9.63;;
36257;SDS011;22294;52.044;4.582;2022-09-13T02:19:52;11.10;;;9.40;;
36257;SDS011;22294;52.044;4.582;2022-09-13T02:22:33;12.20;;;9.50;;
36257;SDS011;22294;52.044;4.582;2022-09-13T02:25:10;12.32;;;9.18;;
36257;SDS011;22294;52.044;4.582;2022-09-13T02:27:40;10.65;;;8.77;;
36257;SDS011;22294;52.044;4.582;2022-09-13T02:30:11;13.38;;;9.23;;
36257;SDS011;22294;52.044;4.582;2022-09-13T02:35:41;10.07;;;9.07;;
36257;SDS011;22294;52.044;4.582;2022-09-13T02:38:37;11.23;;;8.63;;
36257;SDS011;22294;52.044;4.582;2022-09-13T02:41:12;12.45;;;9.80;;
36257;SDS011;22294;52.044;4.582;2022-09-13T02:43:45;11.18;;;9.32;;
36257;SDS011;22294;52.044;4.582;2022-09-13T02:46:19;10.85;;;9.15;;
36257;SDS011;22294;52.044;4.582;2022-09-13T02:48:57;13.23;;;10.88;;
36257;SDS011;22294;52.044;4.582;2022-09-13T02:51:32;13.00;;;10.48;;
36257;SDS011;22294;52.044;4.582;2022-09-13T02:54:14;12.05;;;9.85;;
36257;SDS011;22294;52.044;4.582;2022-09-13T02:56:57;13.95;;;11.48;;
36257;SDS011;22294;52.044;4.582;2022-09-13T02:59:28;14.43;;;10.93;;
36257;SDS011;22294;52.044;4.582;2022-09-13T03:02:04;13.38;;;10.93;;
36257;SDS011;22294;52.044;4.582;2022-09-13T03:04:33;12.20;;;10.93;;
36257;SDS011;22294;52.044;4.582;2022-09-13T03:06:59;12.80;;;10.70;;
36257;SDS011;22294;52.044;4.582;2022-09-13T03:09:26;13.27;;;11.10;;
36257;SDS011;22294;52.044;4.582;2022-09-13T03:11:56;17.27;;;11.18;;
36257;SDS011;22294;52.044;4.582;2022-09-13T03:15:03;15.65;;;11.52;;
36257;SDS011;22294;52.044;4.582;2022-09-13T03:17:45;15.95;;;11.73;;
36257;SDS011;22294;52.044;4.582;2022-09-13T03:31:30;17.20;;;12.80;;
36257;SDS011;22294;52.044;4.582;2022-09-13T03:34:10;17.25;;;12.73;;
36257;SDS011;22294;52.044;4.582;2022-09-13T03:36:45;14.57;;;12.13;;
36257;SDS011;22294;52.044;4.582;2022-09-13T03:42:00;13.77;;;11.57;;
36257;SDS011;22294;52.044;4.582;2022-09-13T03:44:32;17.30;;;13.32;;
36257;SDS011;22294;52.044;4.582;2022-09-13T03:47:00;14.18;;;12.68;;
36257;SDS011;22294;52.044;4.582;2022-09-13T03:49:28;17.58;;;12.90;;
36257;SDS011;22294;52.044;4.582;2022-09-13T03:51:54;15.52;;;12.50;;
36257;SDS011;22294;52.044;4.582;2022-09-13T03:54:26;16.75;;;13.07;;
36257;SDS011;22294;52.044;4.582;2022-09-13T03:59:50;15.50;;;12.45;;
36257;SDS011;22294;52.044;4.582;2022-09-13T04:02:18;14.77;;;12.63;;
36257;SDS011;22294;52.044;4.582;2022-09-13T04:04:46;16.77;;;13.57;;
36257;SDS011;22294;52.044;4.582;2022-09-13T04:07:14;14.80;;;12.80;;
36257;SDS011;22294;52.044;4.582;2022-09-13T04:09:43;16.55;;;13.05;;
36257;SDS011;22294;52.044;4.582;2022-09-13T04:12:10;19.45;;;14.00;;
36257;SDS011;22294;52.044;4.582;2022-09-13T04:14:36;16.00;;;12.52;;
36257;SDS011;22294;52.044;4.582;2022-09-13T04:17:01;18.65;;;13.43;;
36257;SDS011;22294;52.044;4.582;2022-09-13T04:19:27;16.45;;;12.70;;
36257;SDS011;22294;52.044;4.582;2022-09-13T04:21:53;18.70;;;14.13;;
36257;SDS011;22294;52.044;4.582;2022-09-13T04:24:19;18.02;;;13.60;;
36257;SDS011;22294;52.044;4.582;2022-09-13T04:26:48;18.48;;;12.25;;
36257;SDS011;22294;52.044;4.582;2022-09-13T04:29:15;17.40;;;13.80;;
36257;SDS011;22294;52.044;4.582;2022-09-13T04:31:42;17.05;;;12.18;;
36257;SDS011;22294;52.044;4.582;2022-09-13T04:34:08;15.07;;;12.23;;
36257;SDS011;22294;52.044;4.582;2022-09-13T04:36:33;15.82;;;12.13;;
36257;SDS011;22294;52.044;4.582;2022-09-13T04:38:58;18.00;;;12.68;;
36257;SDS011;22294;52.044;4.582;2022-09-13T04:41:24;15.00;;;12.23;;
36257;SDS011;22294;52.044;4.582;2022-09-13T04:43:50;19.60;;;11.98;;
36257;SDS011;22294;52.044;4.582;2022-09-13T04:46:16;14.63;;;12.75;;
36257;SDS011;22294;52.044;4.582;2022-09-13T04:48:41;15.40;;;12.48;;
36257;SDS011;22294;52.044;4.582;2022-09-13T04:51:06;14.45;;;12.07;;
36257;SDS011;22294;52.044;4.582;2022-09-13T04:53:32;15.07;;;12.43;;
36257;SDS011;22294;52.044;4.582;2022-09-13T04:56:01;16.40;;;12.88;;
36257;SDS011;22294;52.044;4.582;2022-09-13T04:58:28;14.98;;;12.13;;
36257;SDS011;22294;52.044;4.582;2022-09-13T05:00:59;14.52;;;12.00;;
36257;SDS011;22294;52.044;4.582;2022-09-13T05:03:25;14.25;;;12.25;;
36257;SDS011;22294;52.044;4.582;2022-09-13T05:05:53;15.02;;;12.60;;
36257;SDS011;22294;52.044;4.582;2022-09-13T05:08:18;17.83;;;13.13;;
36257;SDS011;22294;52.044;4.582;2022-09-13T05:10:45;16.93;;;13.23;;
36257;SDS011;22294;52.044;4.582;2022-09-13T05:13:10;17.30;;;12.43;;
36257;SDS011;22294;52.044;4.582;2022-09-13T05:15:36;16.50;;;12.00;;
36257;SDS011;22294;52.044;4.582;2022-09-13T05:18:01;15.27;;;12.38;;
36257;SDS011;22294;52.044;4.582;2022-09-13T05:20:26;19.77;;;12.07;;
36257;SDS011;22294;52.044;4.582;2022-09-13T05:22:51;22.17;;;14.18;;
36257;SDS011;22294;52.044;4.582;2022-09-13T05:25:17;18.88;;;13.23;;
36257;SDS011;22294;52.044;4.582;2022-09-13T05:27:43;17.93;;;13.17;;
36257;SDS011;22294;52.044;4.582;2022-09-13T05:30:09;20.13;;;14.60;;
36257;SDS011;22294;52.044;4.582;2022-09-13T05:32:35;19.00;;;13.68;;
36257;SDS011;22294;52.044;4.582;2022-09-13T05:35:00;18.05;;;14.70;;
36257;SDS011;22294;52.044;4.582;2022-09-13T05:37:25;18.95;;;14.73;;
36257;SDS011;22294;52.044;4.582;2022-09-13T05:39:51;32.20;;;15.93;;
36257;SDS011;22294;52.044;4.582;2022-09-13T05:42:16;20.40;;;15.13;;
36257;SDS011;22294;52.044;4.582;2022-09-13T05:44:41;23.77;;;15.57;;
36257;SDS011;22294;52.044;4.582;2022-09-13T05:47:06;21.90;;;15.73;;
36257;SDS011;22294;52.044;4.582;2022-09-13T05:49:32;21.90;;;16.65;;
36257;SDS011;22294;52.044;4.582;2022-09-13T05:51:57;19.70;;;16.33;;
36257;SDS011;22294;52.044;4.582;2022-09-13T05:54:22;22.05;;;16.67;;
36257;SDS011;22294;52.044;4.582;2022-09-13T05:56:48;22.45;;;17.40;;
36257;SDS011;22294;52.044;4.582;2022-09-13T05:59:13;25.08;;;16.83;;
36257;SDS011;22294;52.044;4.582;2022-09-13T06:01:38;25.85;;;18.05;;
36257;SDS011;22294;52.044;4.582;2022-09-13T06:04:04;23.52;;;16.08;;
36257;SDS011;22294;52.044;4.582;2022-09-13T06:06:29;23.52;;;17.95;;
36257;SDS011;22294;52.044;4.582;2022-09-13T06:08:55;25.05;;;18.25;;
36257;SDS011;22294;52.044;4.582;2022-09-13T06:11:21;22.73;;;18.38;;
36257;SDS011;22294;52.044;4.582;2022-09-13T06:13:49;20.77;;;17.60;;
36257;SDS011;22294;52.044;4.582;2022-09-13T06:16:15;24.70;;;17.38;;
36257;SDS011;22294;52.044;4.582;2022-09-13T06:18:41;21.13;;;15.20;;
36257;SDS011;22294;52.044;4.582;2022-09-13T06:21:10;23.67;;;16.25;;
36257;SDS011;22294;52.044;4.582;2022-09-13T06:23:42;17.95;;;13.73;;
36257;SDS011;22294;52.044;4.582;2022-09-13T06:26:12;22.02;;;14.02;;
36257;SDS011;22294;52.044;4.582;2022-09-13T06:28:39;17.65;;;12.63;;
36257;SDS011;22294;52.044;4.582;2022-09-13T06:31:10;16.60;;;11.80;;
36257;SDS011;22294;52.044;4.582;2022-09-13T06:33:37;14.77;;;11.68;;
36257;SDS011;22294;52.044;4.582;2022-09-13T06:36:05;18.65;;;12.02;;
36257;SDS011;22294;52.044;4.582;2022-09-13T06:38:32;14.45;;;11.93;;
36257;SDS011;22294;52.044;4.582;2022-09-13T06:41:05;16.40;;;11.30;;
36257;SDS011;22294;52.044;4.582;2022-09-13T06:43:32;11.98;;;10.60;;
36257;SDS011;22294;52.044;4.582;2022-09-13T06:45:58;12.70;;;9.68;;
36257;SDS011;22294;52.044;4.582;2022-09-13T06:48:35;10.80;;;9.00;;
36257;SDS011;22294;52.044;4.582;2022-09-13T06:51:03;11.10;;;8.32;;
36257;SDS011;22294;52.044;4.582;2022-09-13T06:53:30;14.00;;;8.30;;
36257;SDS011;22294;52.044;4.582;2022-09-13T06:58:56;8.98;;;7.13;;
36257;SDS011;22294;52.044;4.582;2022-09-13T07:01:25;8.40;;;6.00;;
36257;SDS011;22294;52.044;4.582;2022-09-13T07:06:32;7.85;;;5.55;;
36257;SDS011;22294;52.044;4.582;2022-09-13T07:11:30;9.15;;;6.05;;
36257;SDS011;22294;52.044;4.582;2022-09-13T07:13:59;11.15;;;5.97;;
36257;SDS011;22294;52.044;4.582;2022-09-13T07:16:35;7.22;;;5.43;;
36257;SDS011;22294;52.044;4.582;2022-09-13T07:19:04;7.00;;;4.38;;
36257;SDS011;22294;52.044;4.582;2022-09-13T07:21:31;5.55;;;3.22;;
36257;SDS011;22294;52.044;4.582;2022-09-13T07:23:58;5.70;;;2.90;;
36257;SDS011;22294;52.044;4.582;2022-09-13T07:26:25;6.57;;;2.72;;
36257;SDS011;22294;52.044;4.582;2022-09-13T07:28:52;9.40;;;2.80;;
36257;SDS011;22294;52.044;4.582;2022-09-13T07:31:22;8.57;;;3.30;;
36257;SDS011;22294;52.044;4.582;2022-09-13T07:33:52;12.07;;;3.63;;
36257;SDS011;22294;52.044;4.582;2022-09-13T07:36:22;10.70;;;3.42;;
36257;SDS011;22294;52.044;4.582;2022-09-13T07:38:48;6.05;;;3.60;;
36257;SDS011;22294;52.044;4.582;2022-09-13T07:41:18;8.73;;;4.22;;
36257;SDS011;22294;52.044;4.582;2022-09-13T07:43:45;8.05;;;4.10;;
36257;SDS011;22294;52.044;4.582;2022-09-13T07:46:15;9.50;;;4.63;;
36257;SDS011;22294;52.044;4.582;2022-09-13T07:48:45;6.22;;;3.92;;
36257;SDS011;22294;52.044;4.582;2022-09-13T07:53:37;7.80;;;3.70;;
36257;SDS011;22294;52.044;4.582;2022-09-13T07:56:04;7.60;;;4.35;;
36257;SDS011;22294;52.044;4.582;2022-09-13T07:58:32;4.25;;;3.70;;
36257;SDS011;22294;52.044;4.582;2022-09-13T08:01:00;8.10;;;3.92;;
36257;SDS011;22294;52.044;4.582;2022-09-13T08:03:32;8.18;;;4.32;;
36257;SDS011;22294;52.044;4.582;2022-09-13T08:05:59;9.82;;;3.30;;
36257;SDS011;22294;52.044;4.582;2022-09-13T08:08:25;6.30;;;4.10;;
36257;SDS011;22294;52.044;4.582;2022-09-13T08:10:50;5.93;;;3.17;;
36257;SDS011;22294;52.044;4.582;2022-09-13T08:13:16;5.78;;;3.08;;
36257;SDS011;22294;52.044;4.582;2022-09-13T08:15:41;5.47;;;2.90;;
36257;SDS011;22294;52.044;4.582;2022-09-13T08:18:07;5.35;;;2.60;;
36257;SDS011;22294;52.044;4.582;2022-09-13T08:20:37;7.47;;;3.03;;
36257;SDS011;22294;52.044;4.582;2022-09-13T08:23:03;3.78;;;2.35;;
36257;SDS011;22294;52.044;4.582;2022-09-13T08:25:33;3.35;;;2.55;;
36257;SDS011;22294;52.044;4.582;2022-09-13T08:28:00;4.90;;;2.38;;
36257;SDS011;22294;52.044;4.582;2022-09-13T08:30:26;7.10;;;2.60;;
36257;SDS011;22294;52.044;4.582;2022-09-13T08:32:57;4.22;;;2.00;;
36257;SDS011;22294;52.044;4.582;2022-09-13T08:35:25;5.13;;;1.90;;
36257;SDS011;22294;52.044;4.582;2022-09-13T08:37:50;9.27;;;2.40;;
36257;SDS011;22294;52.044;4.582;2022-09-13T08:40:16;5.40;;;2.10;;
36257;SDS011;22294;52.044;4.582;2022-09-13T08:42:57;2.97;;;2.25;;
36257;SDS011;22294;52.044;4.582;2022-09-13T08:45:56;5.07;;;2.58;;
36257;SDS011;22294;52.044;4.582;2022-09-13T08:48:30;5.53;;;1.73;;
36257;SDS011;22294;52.044;4.582;2022-09-13T08:51:00;3.60;;;1.33;;
36257;SDS011;22294;52.044;4.582;2022-09-13T08:53:31;3.53;;;1.67;;
36257;SDS011;22294;52.044;4.582;2022-09-13T08:56:08;3.72;;;1.60;;
36257;SDS011;22294;52.044;4.582;2022-09-13T09:04:12;3.13;;;1.10;;
36257;SDS011;22294;52.044;4.582;2022-09-13T09:07:04;4.55;;;1.40;;
36257;SDS011;22294;52.044;4.582;2022-09-13T09:09:39;3.92;;;1.33;;
36257;SDS011;22294;52.044;4.582;2022-09-13T09:14:54;2.85;;;1.33;;
36257;SDS011;22294;52.044;4.582;2022-09-13T09:17:24;3.95;;;1.45;;
36257;SDS011;22294;52.044;4.582;2022-09-13T09:20:38;3.63;;;1.33;;
36257;SDS011;22294;52.044;4.582;2022-09-13T09:22:51;3.72;;;1.05;;
36257;SDS011;22294;52.044;4.582;2022-09-13T09:25:19;4.53;;;1.20;;
36257;SDS011;22294;52.044;4.582;2022-09-13T09:27:48;3.92;;;1.10;;
36257;SDS011;22294;52.044;4.582;2022-09-13T09:30:14;5.50;;;1.10;;
36257;SDS011;22294;52.044;4.582;2022-09-13T09:38:05;8.55;;;1.70;;
36257;SDS011;22294;52.044;4.582;2022-09-13T09:40:51;4.40;;;1.48;;
36257;SDS011;22294;52.044;4.582;2022-09-13T09:43:29;5.63;;;1.50;;
36257;SDS011;22294;52.044;4.582;2022-09-13T09:45:59;6.22;;;1.17;;
36257;SDS011;22294;52.044;4.582;2022-09-13T09:48:28;5.25;;;1.00;;
36257;SDS011;22294;52.044;4.582;2022-09-13T09:51:01;3.10;;;1.05;;
36257;SDS011;22294;52.044;4.582;2022-09-13T09:53:31;6.75;;;1.23;;
36257;SDS011;22294;52.044;4.582;2022-09-13T09:56:14;5.28;;;1.30;;
36257;SDS011;22294;52.044;4.582;2022-09-13T09:58:45;5.15;;;1.40;;
36257;SDS011;22294;52.044;4.582;2022-09-13T10:04:14;5.20;;;1.70;;
36257;SDS011;22294;52.044;4.582;2022-09-13T10:06:43;6.63;;;1.58;;
36257;SDS011;22294;52.044;4.582;2022-09-13T10:19:36;5.97;;;1.75;;
36257;SDS011;22294;52.044;4.582;2022-09-13T10:22:03;1.27;;;0.90;;
36257;SDS011;22294;52.044;4.582;2022-09-13T10:24:34;4.70;;;1.33;;
36257;SDS011;22294;52.044;4.582;2022-09-13T10:26:59;3.33;;;1.20;;
36257;SDS011;22294;52.044;4.582;2022-09-13T10:29:28;6.53;;;1.45;;
36257;SDS011;22294;52.044;4.582;2022-09-13T10:31:54;6.00;;;1.92;;
36257;SDS011;22294;52.044;4.582;2022-09-13T10:34:29;4.68;;;1.55;;
36257;SDS011;22294;52.044;4.582;2022-09-13T10:36:58;2.72;;;1.52;;
36257;SDS011;22294;52.044;4.582;2022-09-13T10:39:30;3.97;;;1.48;;
36257;SDS011;22294;52.044;4.582;2022-09-13T10:45:11;3.05;;;1.00;;
36257;SDS011;22294;52.044;4.582;2022-09-13T10:47:22;5.55;;;1.25;;
36257;SDS011;22294;52.044;4.582;2022-09-13T10:49:55;3.25;;;1.30;;
36257;SDS011;22294;52.044;4.582;2022-09-13T10:54:48;5.97;;;1.50;;
36257;SDS011;22294;52.044;4.582;2022-09-13T11:00:30;5.38;;;1.48;;
36257;SDS011;22294;52.044;4.582;2022-09-13T11:03:15;5.40;;;1.17;;
36257;SDS011;22294;52.044;4.582;2022-09-13T11:06:06;5.63;;;1.10;;
36257;SDS011;22294;52.044;4.582;2022-09-13T11:08:45;3.22;;;1.40;;
36257;SDS011;22294;52.044;4.582;2022-09-13T11:14:38;5.00;;;1.00;;
36257;SDS011;22294;52.044;4.582;2022-09-13T11:29:13;3.53;;;1.10;;
36257;SDS011;22294;52.044;4.582;2022-09-13T11:31:59;5.47;;;1.20;;
36257;SDS011;22294;52.044;4.582;2022-09-13T11:37:20;2.05;;;0.90;;
36257;SDS011;22294;52.044;4.582;2022-09-13T11:39:58;4.00;;;0.93;;
36257;SDS011;22294;52.044;4.582;2022-09-13T11:45:27;3.22;;;0.70;;
36257;SDS011;22294;52.044;4.582;2022-09-13T11:51:08;5.55;;;1.10;;
36257;SDS011;22294;52.044;4.582;2022-09-13T11:56:19;3.33;;;0.88;;
36257;SDS011;22294;52.044;4.582;2022-09-13T11:58:51;4.32;;;0.80;;
36257;SDS011;22294;52.044;4.582;2022-09-13T12:01:23;4.80;;;0.88;;
36257;SDS011;22294;52.044;4.582;2022-09-13T12:04:27;4.68;;;0.98;;
36257;SDS011;22294;52.044;4.582;2022-09-13T12:07:03;5.32;;;1.23;;
36257;SDS011;22294;52.044;4.582;2022-09-13T12:09:37;3.40;;;0.60;;
36257;SDS011;22294;52.044;4.582;2022-09-13T12:12:09;3.03;;;1.15;;
36257;SDS011;22294;52.044;4.582;2022-09-13T12:17:20;4.03;;;1.13;;
36257;SDS011;22294;52.044;4.582;2022-09-13T12:19:58;3.00;;;0.70;;
36257;SDS011;22294;52.044;4.582;2022-09-13T12:22:27;5.78;;;0.70;;
36257;SDS011;22294;52.044;4.582;2022-09-13T12:24:57;6.57;;;1.00;;
36257;SDS011;22294;52.044;4.582;2022-09-13T12:27:30;2.05;;;0.70;;
36257;SDS011;22294;52.044;4.582;2022-09-13T12:30:13;4.35;;;0.70;;
36257;SDS011;22294;52.044;4.582;2022-09-13T12:32:39;3.03;;;0.60;;
36257;SDS011;22294;52.044;4.582;2022-09-13T12:35:12;3.83;;;0.90;;
36257;SDS011;22294;52.044;4.582;2022-09-13T12:37:52;4.22;;;0.70;;
36257;SDS011;22294;52.044;4.582;2022-09-13T12:40:48;3.50;;;0.82;;
36257;SDS011;22294;52.044;4.582;2022-09-13T12:54:21;3.80;;;0.80;;
36257;SDS011;22294;52.044;4.582;2022-09-13T13:04:55;5.18;;;1.10;;
36257;SDS011;22294;52.044;4.582;2022-09-13T13:07:25;2.40;;;0.68;;
36257;SDS011;22294;52.044;4.582;2022-09-13T13:09:54;3.60;;;0.82;;
36257;SDS011;22294;52.044;4.582;2022-09-13T13:12:25;3.65;;;0.88;;
36257;SDS011;22294;52.044;4.582;2022-09-13T13:14:54;2.67;;;0.65;;
36257;SDS011;22294;52.044;4.582;2022-09-13T13:23:18;3.83;;;0.60;;
36257;SDS011;22294;52.044;4.582;2022-09-13T13:32:02;5.00;;;0.60;;
36257;SDS011;22294;52.044;4.582;2022-09-13T13:39:03;1.92;;;0.50;;
36257;SDS011;22294;52.044;4.582;2022-09-13T13:43:58;2.50;;;0.55;;
36257;SDS011;22294;52.044;4.582;2022-09-13T13:46:30;10.85;;;0.90;;
36257;SDS011;22294;52.044;4.582;2022-09-13T14:00:13;5.63;;;2.15;;
36257;SDS011;22294;52.044;4.582;2022-09-13T14:05:32;3.40;;;0.40;;
36257;SDS011;22294;52.044;4.582;2022-09-13T14:21:23;3.15;;;0.88;;
36257;SDS011;22294;52.044;4.582;2022-09-13T14:24:06;4.70;;;0.70;;
36257;SDS011;22294;52.044;4.582;2022-09-13T14:26:48;3.38;;;0.90;;
36257;SDS011;22294;52.044;4.582;2022-09-13T14:29:25;5.20;;;0.93;;
36257;SDS011;22294;52.044;4.582;2022-09-13T14:31:51;4.03;;;0.70;;
36257;SDS011;22294;52.044;4.582;2022-09-13T14:34:23;3.35;;;0.70;;
36257;SDS011;22294;52.044;4.582;2022-09-13T14:36:53;3.92;;;0.60;;
36257;SDS011;22294;52.044;4.582;2022-09-13T14:39:21;4.78;;;0.93;;
36257;SDS011;22294;52.044;4.582;2022-09-13T14:41:46;3.35;;;0.65;;
36257;SDS011;22294;52.044;4.582;2022-09-13T14:44:13;3.58;;;1.05;;
36257;SDS011;22294;52.044;4.582;2022-09-13T14:46:44;5.82;;;0.80;;
36257;SDS011;22294;52.044;4.582;2022-09-13T14:49:20;9.15;;;2.03;;
36257;SDS011;22294;52.044;4.582;2022-09-13T14:51:51;4.43;;;0.70;;
36257;SDS011;22294;52.044;4.582;2022-09-13T14:54:35;6.07;;;0.90;;
36257;SDS011;22294;52.044;4.582;2022-09-13T14:59:32;3.22;;;0.65;;
36257;SDS011;22294;52.044;4.582;2022-09-13T15:02:06;3.40;;;0.80;;
36257;SDS011;22294;52.044;4.582;2022-09-13T15:04:50;4.80;;;0.82;;
36257;SDS011;22294;52.044;4.582;2022-09-13T15:07:22;4.82;;;0.95;;
36257;SDS011;22294;52.044;4.582;2022-09-13T15:12:36;4.55;;;0.63;;
36257;SDS011;22294;52.044;4.582;2022-09-13T15:17:56;4.90;;;0.70;;
36257;SDS011;22294;52.044;4.582;2022-09-13T15:23:41;2.88;;;0.70;;
36257;SDS011;22294;52.044;4.582;2022-09-13T15:26:18;5.05;;;0.98;;
36257;SDS011;22294;52.044;4.582;2022-09-13T15:28:49;4.03;;;0.73;;
36257;SDS011;22294;52.044;4.582;2022-09-13T15:31:29;4.35;;;0.70;;
36257;SDS011;22294;52.044;4.582;2022-09-13T15:39:26;4.75;;;1.00;;
36257;SDS011;22294;52.044;4.582;2022-09-13T15:41:55;4.97;;;0.95;;
36257;SDS011;22294;52.044;4.582;2022-09-13T15:44:22;3.45;;;0.70;;
36257;SDS011;22294;52.044;4.582;2022-09-13T15:46:49;3.35;;;0.77;;
36257;SDS011;22294;52.044;4.582;2022-09-13T15:49:19;5.47;;;1.05;;
36257;SDS011;22294;52.044;4.582;2022-09-13T15:51:52;3.58;;;0.63;;
36257;SDS011;22294;52.044;4.582;2022-09-13T15:54:33;3.55;;;0.70;;
36257;SDS011;22294;52.044;4.582;2022-09-13T15:57:00;5.68;;;0.95;;
36257;SDS011;22294;52.044;4.582;2022-09-13T15:59:30;5.93;;;0.73;;
36257;SDS011;22294;52.044;4.582;2022-09-13T16:01:55;5.10;;;0.90;;
36257;SDS011;22294;52.044;4.582;2022-09-13T16:04:21;4.18;;;0.90;;
36257;SDS011;22294;52.044;4.582;2022-09-13T16:06:46;7.13;;;0.83;;
36257;SDS011;22294;52.044;4.582;2022-09-13T16:11:45;5.05;;;0.70;;
36257;SDS011;22294;52.044;4.582;2022-09-13T16:14:11;4.82;;;1.15;;
36257;SDS011;22294;52.044;4.582;2022-09-13T16:16:37;4.25;;;0.85;;
36257;SDS011;22294;52.044;4.582;2022-09-13T16:19:02;3.20;;;0.83;;
36257;SDS011;22294;52.044;4.582;2022-09-13T16:21:28;2.17;;;0.80;;
36257;SDS011;22294;52.044;4.582;2022-09-13T16:23:54;5.68;;;0.80;;
36257;SDS011;22294;52.044;4.582;2022-09-13T16:26:19;3.90;;;0.85;;
36257;SDS011;22294;52.044;4.582;2022-09-13T16:28:53;7.00;;;1.13;;
36257;SDS011;22294;52.044;4.582;2022-09-13T16:31:19;5.10;;;0.80;;
36257;SDS011;22294;52.044;4.582;2022-09-13T16:33:44;4.80;;;0.90;;
36257;SDS011;22294;52.044;4.582;2022-09-13T16:36:10;4.13;;;0.90;;
36257;SDS011;22294;52.044;4.582;2022-09-13T16:38:36;7.95;;;1.52;;
36257;SDS011;22294;52.044;4.582;2022-09-13T16:41:03;4.35;;;0.90;;
36257;SDS011;22294;52.044;4.582;2022-09-13T16:43:29;3.75;;;1.33;;
36257;SDS011;22294;52.044;4.582;2022-09-13T16:45:54;3.05;;;0.82;;
36257;SDS011;22294;52.044;4.582;2022-09-13T16:48:20;8.25;;;0.98;;
36257;SDS011;22294;52.044;4.582;2022-09-13T16:50:45;4.50;;;0.95;;
36257;SDS011;22294;52.044;4.582;2022-09-13T16:53:10;5.07;;;1.60;;
36257;SDS011;22294;52.044;4.582;2022-09-13T16:55:37;6.15;;;0.80;;
36257;SDS011;22294;52.044;4.582;2022-09-13T16:58:02;7.10;;;0.80;;
36257;SDS011;22294;52.044;4.582;2022-09-13T17:00:27;9.23;;;1.42;;
36257;SDS011;22294;52.044;4.582;2022-09-13T17:02:54;5.75;;;1.08;;
36257;SDS011;22294;52.044;4.582;2022-09-13T17:05:21;3.92;;;0.80;;
36257;SDS011;22294;52.044;4.582;2022-09-13T17:07:49;7.32;;;1.05;;
36257;SDS011;22294;52.044;4.582;2022-09-13T17:10:15;7.65;;;1.05;;
36257;SDS011;22294;52.044;4.582;2022-09-13T17:12:42;5.40;;;1.20;;
36257;SDS011;22294;52.044;4.582;2022-09-13T17:15:07;4.00;;;0.70;;
36257;SDS011;22294;52.044;4.582;2022-09-13T17:17:33;7.05;;;1.48;;
36257;SDS011;22294;52.044;4.582;2022-09-13T17:20:04;6.82;;;0.95;;
36257;SDS011;22294;52.044;4.582;2022-09-13T17:22:33;6.88;;;1.10;;
36257;SDS011;22294;52.044;4.582;2022-09-13T17:24:58;6.88;;;0.93;;
36257;SDS011;22294;52.044;4.582;2022-09-13T17:27:25;4.00;;;1.20;;
36257;SDS011;22294;52.044;4.582;2022-09-13T17:29:50;5.85;;;1.15;;
36257;SDS011;22294;52.044;4.582;2022-09-13T17:32:15;6.53;;;0.90;;
36257;SDS011;22294;52.044;4.582;2022-09-13T17:34:41;6.73;;;2.13;;
36257;SDS011;22294;52.044;4.582;2022-09-13T17:37:06;7.15;;;1.20;;
36257;SDS011;22294;52.044;4.582;2022-09-13T17:39:32;7.50;;;1.60;;
36257;SDS011;22294;52.044;4.582;2022-09-13T17:41:58;6.63;;;1.20;;
36257;SDS011;22294;52.044;4.582;2022-09-13T17:44:23;7.28;;;1.20;;
36257;SDS011;22294;52.044;4.582;2022-09-13T17:46:49;8.55;;;1.23;;
36257;SDS011;22294;52.044;4.582;2022-09-13T17:49:14;6.43;;;0.88;;
36257;SDS011;22294;52.044;4.582;2022-09-13T17:51:39;7.80;;;1.00;;
36257;SDS011;22294;52.044;4.582;2022-09-13T17:54:06;9.55;;;1.40;;
36257;SDS011;22294;52.044;4.582;2022-09-13T17:56:35;7.75;;;1.38;;
36257;SDS011;22294;52.044;4.582;2022-09-13T17:59:03;7.60;;;1.13;;
36257;SDS011;22294;52.044;4.582;2022-09-13T18:01:34;6.57;;;1.20;;
36257;SDS011;22294;52.044;4.582;2022-09-13T18:04:01;6.78;;;1.35;;
36257;SDS011;22294;52.044;4.582;2022-09-13T18:06:27;6.60;;;1.30;;
36257;SDS011;22294;52.044;4.582;2022-09-13T18:08:53;8.25;;;1.08;;
36257;SDS011;22294;52.044;4.582;2022-09-13T18:11:18;6.88;;;1.20;;
36257;SDS011;22294;52.044;4.582;2022-09-13T18:13:44;5.50;;;1.10;;
36257;SDS011;22294;52.044;4.582;2022-09-13T18:16:11;7.90;;;1.23;;
36257;SDS011;22294;52.044;4.582;2022-09-13T18:18:38;5.50;;;1.02;;
36257;SDS011;22294;52.044;4.582;2022-09-13T18:21:04;7.15;;;1.40;;
36257;SDS011;22294;52.044;4.582;2022-09-13T18:23:30;8.20;;;1.30;;